createdAt,value
2018-11-06T00:02:03.056Z,29.87
2018-11-06T00:04:37.141Z,30.97
2018-11-06T00:07:05.222Z,30.63
2018-11-06T00:09:33.268Z,36.70
2018-11-06T00:12:01.320Z,32.13
2018-11-06T00:14:29.294Z,31.47
2018-11-06T00:16:57.276Z,30.63
2018-11-06T00:19:25.273Z,32.03
2018-11-06T00:21:53.211Z,29.77
2018-11-06T00:24:21.185Z,31.30
2018-11-06T00:26:49.244Z,32.30
2018-11-06T00:29:17.203Z,32.97
2018-11-06T00:31:45.308Z,38.10
2018-11-06T00:34:14.178Z,33.03
2018-11-06T00:36:42.150Z,35.83
2018-11-06T00:39:10.483Z,33.90
2018-11-06T00:41:38.612Z,32.37
2018-11-06T00:44:06.637Z,30.27
2018-11-06T00:46:34.609Z,28.40
2018-11-06T00:49:02.583Z,37.50
2018-11-06T00:51:30.552Z,30.60
2018-11-06T00:53:58.509Z,29.97
2018-11-06T00:56:26.489Z,30.93
2018-11-06T00:58:54.423Z,30.07
2018-11-06T01:01:22.411Z,32.27
2018-11-06T01:04:22.273Z,31.23
2018-11-06T01:06:50.298Z,27.43
2018-11-06T01:09:18.287Z,32.57
2018-11-06T01:11:46.293Z,30.63
2018-11-06T01:14:14.249Z,29.87
2018-11-06T01:16:42.285Z,35.30
2018-11-06T01:19:10.676Z,29.60
2018-11-06T01:21:38.683Z,32.60
2018-11-06T01:24:07.449Z,28.90
2018-11-06T01:26:35.395Z,28.67
2018-11-06T01:29:03.468Z,32.60
2018-11-06T01:31:31.502Z,30.80
2018-11-06T01:33:59.429Z,32.60
2018-11-06T01:36:27.383Z,27.90
2018-11-06T01:38:55.349Z,26.67
2018-11-06T01:41:23.457Z,24.40
2018-11-06T01:43:51.408Z,25.33
2018-11-06T01:46:22.540Z,25.33
2018-11-06T01:48:50.504Z,24.60
2018-11-06T01:51:18.517Z,25.37
2018-11-06T01:53:46.653Z,26.63
2018-11-06T01:56:14.666Z,23.90
2018-11-06T01:58:42.689Z,22.73
2018-11-06T02:01:10.640Z,23.37
2018-11-06T02:03:38.683Z,25.13
2018-11-06T02:06:06.906Z,24.53
2018-11-06T02:08:34.960Z,30.13
2018-11-06T02:11:03.048Z,33.97
2018-11-06T02:13:31.109Z,26.93
2018-11-06T02:15:59.133Z,33.47
2018-11-06T02:18:27.119Z,25.67
2018-11-06T02:20:55.129Z,28.13
2018-11-06T02:23:23.239Z,27.13
2018-11-06T02:25:51.250Z,29.90
2018-11-06T02:28:19.221Z,28.50
2018-11-06T02:30:47.226Z,27.90
2018-11-06T02:33:15.300Z,32.40
2018-11-06T02:35:43.321Z,23.00
2018-11-06T02:38:11.434Z,24.27
2018-11-06T02:40:39.539Z,21.63
2018-11-06T02:43:07.536Z,23.33
2018-11-06T02:45:35.538Z,26.27
2018-11-06T02:48:03.557Z,32.43
2018-11-06T02:50:31.576Z,22.47
2018-11-06T02:52:59.556Z,28.80
2018-11-06T02:55:27.552Z,21.10
2018-11-06T02:57:55.555Z,21.17
2018-11-06T03:00:23.531Z,22.13
2018-11-06T03:02:51.594Z,20.40
2018-11-06T03:05:19.585Z,18.80
2018-11-06T03:07:47.592Z,20.53
2018-11-06T03:10:15.691Z,19.87
2018-11-06T03:12:44.233Z,19.60
2018-11-06T03:15:13.251Z,19.50
2018-11-06T03:17:41.213Z,22.47
2018-11-06T03:20:10.306Z,21.73
2018-11-06T03:22:38.383Z,22.00
2018-11-06T03:25:06.635Z,21.67
2018-11-06T03:27:34.645Z,20.80
2018-11-06T03:30:03.440Z,21.17
2018-11-06T03:32:31.377Z,20.27
2018-11-06T03:34:59.450Z,22.33
2018-11-06T03:37:27.486Z,24.83
2018-11-06T03:39:55.471Z,18.93
2018-11-06T03:42:23.434Z,20.97
2018-11-06T03:44:51.359Z,23.50
2018-11-06T03:47:19.313Z,18.80
2018-11-06T03:49:47.280Z,18.13
2018-11-06T03:52:15.262Z,21.03
2018-11-06T03:54:43.277Z,23.63
2018-11-06T03:57:11.222Z,19.20
2018-11-06T03:59:39.169Z,22.30
2018-11-06T04:02:07.104Z,19.10
2018-11-06T04:04:35.084Z,23.70
2018-11-06T04:07:03.120Z,19.70
2018-11-06T04:09:31.099Z,25.10
2018-11-06T04:11:59.057Z,20.43
2018-11-06T04:14:27.009Z,21.30
2018-11-06T04:16:54.932Z,18.67
2018-11-06T04:19:22.899Z,27.03
2018-11-06T04:21:50.863Z,21.93
2018-11-06T04:24:18.895Z,21.37
2018-11-06T04:26:47.656Z,17.10
2018-11-06T04:29:15.622Z,19.10
2018-11-06T04:31:43.620Z,18.70
2018-11-06T04:34:11.532Z,19.47
2018-11-06T04:36:39.513Z,21.23
2018-11-06T04:39:08.929Z,18.87
2018-11-06T04:41:36.935Z,17.43
2018-11-06T04:44:05.659Z,16.97
2018-11-06T04:46:33.741Z,17.50
2018-11-06T04:49:01.625Z,16.47
2018-11-06T04:51:29.593Z,17.40
2018-11-06T04:53:57.627Z,17.20
2018-11-06T04:56:25.894Z,18.27
2018-11-06T04:58:53.953Z,17.93
2018-11-06T05:01:22.504Z,15.07
2018-11-06T05:03:50.433Z,14.70
2018-11-06T05:06:18.844Z,14.73
2018-11-06T05:08:46.840Z,13.73
2018-11-06T05:11:14.949Z,13.63
2018-11-06T05:13:43.040Z,16.03
2018-11-06T05:16:11.027Z,14.23
2018-11-06T05:18:38.986Z,13.40
2018-11-06T05:21:07.405Z,16.50
2018-11-06T05:23:35.543Z,13.40
2018-11-06T05:26:04.325Z,14.00
2018-11-06T05:28:32.294Z,13.83
2018-11-06T05:31:00.316Z,13.80
2018-11-06T05:33:28.240Z,15.10
2018-11-06T05:35:56.233Z,14.57
2018-11-06T05:38:24.137Z,14.40
2018-11-06T05:40:57.473Z,13.37
2018-11-06T05:43:25.434Z,17.77
2018-11-06T05:45:54.063Z,16.33
2018-11-06T05:48:22.121Z,14.67
2018-11-06T05:50:50.233Z,15.47
2018-11-06T05:53:18.408Z,15.70
2018-11-06T05:55:46.496Z,13.27
2018-11-06T05:58:14.416Z,13.40
2018-11-06T06:00:42.983Z,12.37
2018-11-06T06:03:10.920Z,12.37
2018-11-06T06:05:38.889Z,12.97
2018-11-06T06:08:07.115Z,15.30
2018-11-06T06:10:35.277Z,12.53
2018-11-06T06:13:03.874Z,13.20
2018-11-06T06:15:31.941Z,12.90
2018-11-06T06:17:59.909Z,13.70
2018-11-06T06:20:27.882Z,13.13
2018-11-06T06:22:55.898Z,14.20
2018-11-06T06:25:23.853Z,13.83
2018-11-06T06:27:51.961Z,13.40
2018-11-06T06:30:19.923Z,12.20
2018-11-06T06:32:47.967Z,13.23
2018-11-06T06:35:16.072Z,14.23
2018-11-06T06:37:44.177Z,14.57
2018-11-06T06:40:13.635Z,13.43
2018-11-06T06:42:41.953Z,14.30
2018-11-06T06:45:11.876Z,15.57
2018-11-06T06:47:39.863Z,18.53
2018-11-06T06:50:09.980Z,17.20
2018-11-06T06:52:38.562Z,18.70
2018-11-06T06:55:07.718Z,15.60
2018-11-06T06:57:36.237Z,16.37
2018-11-06T07:00:04.496Z,15.43
2018-11-06T07:02:32.564Z,17.53
2018-11-06T07:05:00.455Z,18.50
2018-11-06T07:07:28.373Z,16.27
2018-11-06T07:09:56.335Z,17.57
2018-11-06T07:12:24.240Z,19.17
2018-11-06T07:14:52.154Z,17.03
2018-11-06T07:17:20.129Z,16.23
2018-11-06T07:19:48.116Z,15.83
2018-11-06T07:22:16.028Z,18.70
2018-11-06T07:24:43.984Z,17.47
2018-11-06T07:27:12.003Z,17.17
2018-11-06T07:29:39.971Z,17.27
2018-11-06T07:32:08.534Z,17.37
2018-11-06T07:34:36.616Z,19.90
2018-11-06T07:37:04.714Z,17.97
2018-11-06T07:39:32.692Z,16.43
2018-11-06T07:42:00.662Z,16.70
2018-11-06T07:44:28.759Z,17.60
2018-11-06T07:46:56.812Z,17.87
2018-11-06T07:49:24.885Z,16.90
2018-11-06T07:51:52.928Z,16.30
2018-11-06T07:54:20.885Z,14.37
2018-11-06T07:56:48.877Z,15.10
2018-11-06T07:59:16.937Z,16.67
2018-11-06T08:01:44.886Z,19.00
2018-11-06T08:04:12.988Z,17.30
2018-11-06T08:06:40.960Z,16.53
2018-11-06T08:09:09.717Z,16.30
2018-11-06T08:11:38.496Z,16.17
2018-11-06T08:14:06.508Z,16.23
2018-11-06T08:16:34.443Z,16.07
2018-11-06T08:19:02.455Z,14.93
2018-11-06T08:21:30.505Z,15.00
2018-11-06T08:23:58.586Z,16.10
2018-11-06T08:26:26.525Z,16.23
2018-11-06T08:28:54.482Z,15.43
2018-11-06T08:31:22.801Z,15.80
2018-11-06T08:33:50.496Z,15.40
2018-11-06T08:36:18.577Z,14.67
2018-11-06T08:38:46.619Z,14.77
2018-11-06T08:41:14.898Z,15.13
2018-11-06T08:43:42.882Z,19.37
2018-11-06T08:46:10.857Z,16.87
2018-11-06T08:48:38.868Z,15.60
2018-11-06T08:51:07.065Z,15.50
2018-11-06T08:53:35.149Z,18.70
2018-11-06T08:56:03.742Z,16.17
2018-11-06T08:58:31.732Z,17.13
2018-11-06T09:00:59.740Z,16.67
2018-11-06T09:03:27.829Z,15.50
2018-11-06T09:05:56.809Z,17.63
2018-11-06T09:08:25.032Z,18.10
2018-11-06T09:10:53.195Z,18.03
2018-11-06T09:13:21.222Z,20.37
2018-11-06T09:15:49.316Z,19.30
2018-11-06T09:18:17.394Z,20.40
2018-11-06T09:20:45.501Z,20.30
2018-11-06T09:23:13.549Z,19.57
2018-11-06T09:25:41.500Z,19.00
2018-11-06T09:28:09.493Z,20.07
2018-11-06T09:30:37.516Z,18.73
2018-11-06T09:33:05.729Z,19.93
2018-11-06T09:35:33.710Z,20.57
2018-11-06T09:38:01.861Z,18.53
2018-11-06T09:42:57.863Z,18.90
2018-11-06T09:45:25.921Z,18.20
2018-11-06T09:47:53.988Z,16.27
2018-11-06T09:50:22.038Z,18.30
2018-11-06T09:52:50.176Z,16.90
2018-11-06T09:55:18.334Z,19.57
2018-11-06T09:57:46.919Z,18.33
2018-11-06T10:00:19.504Z,16.73
2018-11-06T10:02:47.641Z,15.83
2018-11-06T10:05:16.053Z,18.07
2018-11-06T10:07:44.169Z,17.27
2018-11-06T10:10:14.001Z,16.00
2018-11-06T10:12:42.365Z,16.70
2018-11-06T10:15:12.393Z,18.00
2018-11-06T10:17:41.386Z,15.93
2018-11-06T10:20:10.421Z,13.03
2018-11-06T10:22:38.495Z,15.53
2018-11-06T10:25:06.900Z,14.87
2018-11-06T10:27:35.092Z,15.40
2018-11-06T10:30:03.221Z,14.87
2018-11-06T10:32:31.314Z,14.60
2018-11-06T10:34:59.384Z,13.93
2018-11-06T10:37:27.353Z,14.70
2018-11-06T10:39:55.422Z,13.83
2018-11-06T10:42:23.359Z,14.27
2018-11-06T10:44:51.311Z,13.17
2018-11-06T10:47:19.234Z,14.93
2018-11-06T10:49:47.222Z,14.20
2018-11-06T10:52:15.236Z,13.60
2018-11-06T10:54:43.193Z,14.53
2018-11-06T10:57:11.164Z,14.20
2018-11-06T10:59:39.110Z,13.07
2018-11-06T11:03:10.044Z,13.53
2018-11-06T11:05:38.029Z,13.97
2018-11-06T11:08:05.984Z,14.13
2018-11-06T11:10:33.926Z,14.60
2018-11-06T11:13:01.845Z,14.67
2018-11-06T11:15:29.818Z,15.13
2018-11-06T11:17:57.928Z,12.83
2018-11-06T11:20:25.947Z,14.30
2018-11-06T11:22:53.929Z,15.03
2018-11-06T11:25:21.995Z,14.50
2018-11-06T11:27:50.077Z,15.23
2018-11-06T11:30:18.136Z,14.23
2018-11-06T11:32:47.131Z,13.57
2018-11-06T11:35:15.541Z,14.30
2018-11-06T11:37:43.675Z,12.93
2018-11-06T11:40:12.855Z,12.97
2018-11-06T11:42:40.971Z,11.97
2018-11-06T11:45:10.340Z,14.03
2018-11-06T11:47:38.597Z,13.00
2018-11-06T11:50:07.948Z,13.93
2018-11-06T11:52:35.964Z,13.93
2018-11-06T11:55:04.395Z,14.00
2018-11-06T11:57:34.376Z,14.97
2018-11-06T12:00:02.514Z,13.00
2018-11-06T12:02:30.484Z,12.60
2018-11-06T12:04:58.797Z,12.03
2018-11-06T12:07:26.887Z,13.40
2018-11-06T12:09:55.066Z,13.33
2018-11-06T12:12:23.096Z,13.90
2018-11-06T12:14:51.098Z,11.63
2018-11-06T12:17:19.426Z,13.07
2018-11-06T12:19:47.442Z,12.57
2018-11-06T12:22:15.468Z,11.43
2018-11-06T12:24:44.138Z,11.03
2018-11-06T12:27:12.123Z,10.63
2018-11-06T12:29:40.131Z,12.27
2018-11-06T12:32:09.074Z,12.27
2018-11-06T12:34:37.074Z,12.37
2018-11-06T12:37:05.228Z,12.90
2018-11-06T12:39:33.209Z,11.17
2018-11-06T12:42:01.189Z,12.60
2018-11-06T12:44:29.309Z,11.00
2018-11-06T12:46:57.314Z,10.80
2018-11-06T12:49:25.355Z,10.53
2018-11-06T12:51:53.944Z,10.97
2018-11-06T12:54:21.904Z,11.87
2018-11-06T12:56:49.902Z,12.17
2018-11-06T12:59:17.834Z,11.07
2018-11-06T13:01:45.847Z,12.20
2018-11-06T13:04:13.908Z,13.60
2018-11-06T13:06:41.893Z,12.87
2018-11-06T13:09:10.884Z,12.17
2018-11-06T13:11:39.253Z,12.93
2018-11-06T13:14:07.920Z,12.17
2018-11-06T13:16:36.102Z,11.63
2018-11-06T13:19:04.224Z,11.93
2018-11-06T13:21:32.255Z,12.10
2018-11-06T13:24:00.304Z,12.43
2018-11-06T13:26:28.648Z,12.53
2018-11-06T13:28:56.608Z,12.87
2018-11-06T13:31:24.732Z,12.60
2018-11-06T13:33:52.962Z,12.00
2018-11-06T13:36:20.995Z,12.43
2018-11-06T13:38:49.996Z,11.80
2018-11-06T13:41:18.044Z,12.90
2018-11-06T13:43:46.221Z,12.30
2018-11-06T13:46:14.089Z,11.43
2018-11-06T13:48:42.129Z,11.63
2018-11-06T13:51:10.120Z,11.33
2018-11-06T13:53:38.089Z,10.90
2018-11-06T13:56:06.995Z,10.30
2018-11-06T13:58:35.064Z,11.03
2018-11-06T14:01:03.086Z,11.60
2018-11-06T14:03:31.153Z,10.17
2018-11-06T14:05:59.143Z,10.83
2018-11-06T14:08:27.104Z,10.67
2018-11-06T14:10:55.180Z,10.60
2018-11-06T14:13:23.232Z,11.27
2018-11-06T14:15:51.205Z,10.60
2018-11-06T14:18:19.977Z,12.53
2018-11-06T14:20:48.084Z,10.03
2018-11-06T14:23:16.086Z,11.43
2018-11-06T14:25:44.204Z,11.20
2018-11-06T14:28:12.317Z,11.73
2018-11-06T14:30:40.556Z,12.20
2018-11-06T14:33:08.546Z,11.53
2018-11-06T14:35:36.560Z,11.13
2018-11-06T14:38:04.872Z,11.30
2018-11-06T14:40:32.886Z,11.20
2018-11-06T14:43:01.186Z,10.47
2018-11-06T14:45:29.283Z,11.10
2018-11-06T14:47:59.452Z,10.43
2018-11-06T14:50:27.396Z,9.47
2018-11-06T14:52:55.365Z,9.90
2018-11-06T14:55:23.413Z,9.97
2018-11-06T14:57:51.430Z,10.03
2018-11-06T15:00:20.546Z,11.77
2018-11-06T15:02:49.983Z,11.07
2018-11-06T15:05:18.877Z,11.83
2018-11-06T15:07:47.090Z,12.07
2018-11-06T15:10:15.302Z,11.43
2018-11-06T15:12:44.076Z,10.97
2018-11-06T15:15:13.377Z,11.77
2018-11-06T15:17:42.751Z,11.53
2018-11-06T15:20:13.372Z,13.13
2018-11-06T15:22:42.131Z,12.97
2018-11-06T15:25:11.235Z,11.93
2018-11-06T15:27:39.354Z,14.53
2018-11-06T15:30:09.632Z,12.40
2018-11-06T15:32:37.848Z,13.00
2018-11-06T15:35:06.773Z,13.43
2018-11-06T15:37:35.473Z,13.73
2018-11-06T15:40:03.763Z,14.33
2018-11-06T15:42:31.868Z,15.33
2018-11-06T15:44:59.835Z,13.33
2018-11-06T15:47:28.291Z,14.97
2018-11-06T15:49:56.349Z,14.70
2018-11-06T15:52:24.424Z,13.57
2018-11-06T15:54:52.503Z,13.37
2018-11-06T15:57:20.468Z,13.50
2018-11-06T15:59:48.525Z,13.03
2018-11-06T16:02:16.532Z,12.90
2018-11-06T16:04:45.377Z,13.13
2018-11-06T16:07:13.360Z,14.27
2018-11-06T16:09:41.408Z,11.80
2018-11-06T16:12:09.724Z,14.57
2018-11-06T16:14:37.875Z,12.70
2018-11-06T16:17:06.285Z,12.80
2018-11-06T16:19:34.293Z,11.37
2018-11-06T16:22:02.424Z,13.40
2018-11-06T16:24:30.385Z,13.90
2018-11-06T16:26:58.403Z,12.73
2018-11-06T16:29:26.405Z,13.47
2018-11-06T16:31:54.488Z,13.10
2018-11-06T16:34:22.492Z,14.60
2018-11-06T16:36:50.595Z,14.10
2018-11-06T16:39:18.593Z,13.60
2018-11-06T16:41:47.410Z,13.33
2018-11-06T16:44:15.414Z,15.30
2018-11-06T16:46:43.398Z,14.90
2018-11-06T16:49:11.508Z,15.23
2018-11-06T16:51:39.487Z,14.87
2018-11-06T16:54:07.472Z,15.73
2018-11-06T16:56:35.593Z,15.93
2018-11-06T16:59:03.571Z,14.70
2018-11-06T17:01:31.821Z,14.30
2018-11-06T17:03:59.814Z,13.97
2018-11-06T17:06:33.360Z,14.27
2018-11-06T17:09:01.381Z,14.93
2018-11-06T17:11:29.422Z,13.73
2018-11-06T17:13:57.510Z,14.10
2018-11-06T17:16:25.508Z,14.30
2018-11-06T17:18:53.504Z,14.10
2018-11-06T17:21:21.507Z,13.53
2018-11-06T17:23:49.468Z,14.40
2018-11-06T17:26:17.420Z,15.00
2018-11-06T17:28:46.515Z,14.97
2018-11-06T17:31:14.607Z,15.63
2018-11-06T17:33:42.616Z,16.30
2018-11-06T17:36:10.793Z,14.87
2018-11-06T17:38:38.791Z,14.73
2018-11-06T17:41:06.762Z,13.67
2018-11-06T17:43:34.827Z,14.03
2018-11-06T17:46:02.941Z,16.20
2018-11-06T17:48:31.635Z,15.53
2018-11-06T17:50:59.901Z,15.40
2018-11-06T17:53:27.859Z,13.77
2018-11-06T17:55:55.915Z,14.63
2018-11-06T17:58:23.869Z,14.63
2018-11-06T18:00:52.876Z,14.10
2018-11-06T18:03:20.869Z,15.80
2018-11-06T18:05:48.977Z,16.73
2018-11-06T18:08:17.071Z,13.83
2018-11-06T18:10:45.292Z,14.80
2018-11-06T18:13:13.413Z,14.03
2018-11-06T18:15:41.420Z,15.50
2018-11-06T18:18:10.165Z,14.40
2018-11-06T18:20:38.113Z,16.03
2018-11-06T18:23:06.304Z,18.77
2018-11-06T18:25:34.376Z,16.50
2018-11-06T18:28:02.411Z,16.80
2018-11-06T18:30:30.481Z,16.70
2018-11-06T18:32:58.443Z,17.27
2018-11-06T18:35:26.454Z,16.97
2018-11-06T18:37:54.459Z,16.03
2018-11-06T18:40:22.420Z,16.77
2018-11-06T18:42:51.034Z,17.20
2018-11-06T18:45:19.108Z,17.27
2018-11-06T18:47:47.871Z,16.13
2018-11-06T18:50:16.918Z,17.20
2018-11-06T18:52:46.282Z,16.53
2018-11-06T18:55:14.320Z,17.10
2018-11-06T18:57:42.488Z,17.77
2018-11-06T19:00:17.868Z,17.07
2018-11-06T19:02:46.746Z,17.53
2018-11-06T19:05:15.238Z,18.47
2018-11-06T19:07:43.901Z,17.70
2018-11-06T19:10:12.921Z,17.17
2018-11-06T19:12:41.192Z,17.27
2018-11-06T19:15:12.913Z,16.77
2018-11-06T19:19:26.939Z,16.73
2018-11-06T19:21:55.101Z,16.63
2018-11-06T19:24:23.057Z,17.50
2018-11-06T19:26:51.016Z,17.40
2018-11-06T19:29:18.966Z,16.60
2018-11-06T19:31:47.013Z,18.30
2018-11-06T19:34:15.074Z,16.87
2018-11-06T19:36:43.108Z,16.47
2018-11-06T19:39:12.053Z,17.00
2018-11-06T19:41:40.148Z,18.73
2018-11-06T19:44:09.671Z,18.07
2018-11-06T19:46:37.812Z,16.83
2018-11-06T19:49:05.835Z,16.57
2018-11-06T19:51:34.240Z,15.93
2018-11-06T19:54:02.376Z,15.43
2018-11-06T19:56:30.338Z,14.93
2018-11-06T19:58:58.283Z,16.07
2018-11-06T20:01:26.738Z,16.13
2018-11-06T20:03:54.708Z,16.03
2018-11-06T20:06:22.799Z,16.33
2018-11-06T20:08:50.978Z,17.43
2018-11-06T20:11:19.056Z,17.67
2018-11-06T20:13:47.020Z,17.03
2018-11-06T20:16:15.066Z,15.23
2018-11-06T20:18:43.046Z,14.67
2018-11-06T20:21:11.095Z,15.17
2018-11-06T20:23:39.077Z,14.80
2018-11-06T20:26:07.172Z,15.30
2018-11-06T20:28:36.013Z,15.07
2018-11-06T20:31:04.217Z,16.10
2018-11-06T20:33:32.340Z,14.73
2018-11-06T20:36:00.122Z,14.07
2018-11-06T20:38:28.084Z,13.53
2018-11-06T20:40:56.153Z,14.33
2018-11-06T20:43:24.162Z,13.77
2018-11-06T20:45:52.351Z,14.77
2018-11-06T20:48:20.574Z,17.03
2018-11-06T20:50:48.537Z,13.80
2018-11-06T20:53:16.474Z,15.27
2018-11-06T20:55:44.549Z,13.90
2018-11-06T20:58:12.569Z,15.03
2018-11-06T21:00:40.866Z,14.20
2018-11-06T21:03:08.767Z,16.77
2018-11-06T21:05:36.736Z,16.47
2018-11-06T21:08:04.910Z,14.43
2018-11-06T21:10:32.882Z,13.33
2018-11-06T21:13:00.867Z,13.00
2018-11-06T21:15:28.757Z,13.00
2018-11-06T21:17:57.095Z,13.00
2018-11-06T21:20:25.079Z,13.57
2018-11-06T21:22:52.895Z,12.47
2018-11-06T21:25:21.105Z,14.00
2018-11-06T21:27:48.966Z,15.10
2018-11-06T21:30:19.336Z,13.53
2018-11-06T21:32:48.651Z,13.77
2018-11-06T21:35:16.828Z,14.00
2018-11-06T21:37:44.801Z,13.40
2018-11-06T21:40:17.459Z,13.93
2018-11-06T21:42:45.851Z,13.90
2018-11-06T21:45:14.464Z,15.07
2018-11-06T21:47:43.540Z,14.43
2018-11-06T21:50:12.457Z,14.10
2018-11-06T21:52:40.414Z,14.13
2018-11-06T21:55:09.997Z,14.73
2018-11-06T21:57:38.272Z,14.93
2018-11-06T22:00:08.113Z,14.63
2018-11-06T22:02:36.140Z,13.33
2018-11-06T22:05:05.336Z,14.17
2018-11-06T22:07:33.288Z,14.67
2018-11-06T22:10:01.353Z,13.13
2018-11-06T22:12:29.391Z,14.60
2018-11-06T22:14:57.391Z,15.30
2018-11-06T22:17:25.369Z,15.17
2018-11-06T22:19:53.287Z,14.03
2018-11-06T22:22:21.271Z,16.83
2018-11-06T22:24:49.119Z,16.57
2018-11-06T22:27:17.032Z,14.80
2018-11-06T22:29:44.937Z,17.03
2018-11-06T22:32:13.169Z,16.33
2018-11-06T22:34:41.146Z,15.40
2018-11-06T22:37:09.165Z,15.33
2018-11-06T22:39:37.039Z,14.83
2018-11-06T22:42:04.999Z,16.87
2018-11-06T22:44:32.918Z,14.27
2018-11-06T22:47:00.864Z,16.87
2018-11-06T22:49:28.777Z,14.47
2018-11-06T22:51:56.797Z,16.90
2018-11-06T22:54:24.767Z,17.00
2018-11-06T22:56:52.798Z,16.70
2018-11-06T22:59:21.114Z,16.33
2018-11-06T23:01:49.154Z,16.67
2018-11-06T23:04:17.107Z,14.43
2018-11-06T23:06:45.132Z,13.53
2018-11-06T23:09:13.062Z,14.13
2018-11-06T23:11:40.992Z,13.97
2018-11-06T23:14:08.989Z,12.70
2018-11-06T23:16:36.988Z,13.30
2018-11-06T23:19:05.069Z,16.17
2018-11-06T23:21:33.116Z,15.53
2018-11-06T23:24:01.214Z,14.47
2018-11-06T23:26:29.857Z,13.23
2018-11-06T23:28:57.718Z,14.40
2018-11-06T23:31:25.714Z,14.80
2018-11-06T23:33:53.687Z,15.63
2018-11-06T23:36:21.769Z,14.00
2018-11-06T23:38:49.657Z,12.73
2018-11-06T23:41:17.721Z,13.30
2018-11-06T23:43:45.651Z,15.73
2018-11-06T23:46:13.638Z,14.47
2018-11-06T23:48:41.572Z,15.20
2018-11-06T23:51:09.440Z,15.47
2018-11-06T23:53:37.300Z,15.43
2018-11-06T23:56:05.307Z,16.60
2018-11-06T23:58:33.161Z,17.00
